logo
Search for airport 
image banner adimage banner adimage banner ad
image banner ad

OERM - Ras Mishab

Located in Ras Mishab, Saudi Arabia

ICAO - OERM, IATA -

Data provided by Airmate  

General information

Coordinates: N28°4'44" E48°36'40"
Elevation is 13 feet MSL.
 
View others Airports in Ash Sharqiyah

Operational data

Special qualification required
Current time UTC:
Current local time:
Weather at : - ( 0 km )
METAR: ZMUB 202200Z 35008MPS 6000 2800SE SNRA BLSN OVC030 00/M01 Q1000 NOSIG
View NOTAMs / SUP AIP / TFR affecting this airport [VIEW]
Communications frequencies: [VIEW]

Runways:

RWY identifierQFULength (ft)Width (ft)SurfaceLDA (ft)
16163°10551200ASP
34343°10551200ASP

Airport contact information

Address: Ras Mishab Saudi Arabia

Satellite view of OERM